Time;durP1;ratioP1;P1;durP2;ratioP2;P2;SDS_P1;SDS_P2;PMS_P1;PMS_P2;Temp;Humidity;BMP_temperature;BMP_pressure;BME280_temperature;BME280_humidity;BME280_pressure;Samples;Min_cycle;Max_cycle;Signal;HPM_P1;HPM_P2
2022/12/14 00:01:10;;;;;;;29.00;16.23;;;-5.20;99.90;;;;;;5020055;28;20132;-82
2022/12/14 00:03:35;;;;;;;31.33;17.67;;;-5.20;99.90;;;;;;5008110;28;20029;-82
2022/12/14 00:06:26;;;;;;;37.00;21.53;;;-5.20;99.90;;;;;;5021341;28;20045;-82
2022/12/14 00:08:53;;;;;;;29.33;14.67;;;-5.10;99.90;;;;;;5026039;28;20120;-82
2022/12/14 00:11:21;;;;;;;29.50;16.77;;;-5.10;99.90;;;;;;5024994;28;20082;-82
2022/12/14 00:13:51;;;;;;;30.20;17.13;;;-5.10;99.90;;;;;;5024296;28;20029;-82
2022/12/14 00:16:17;;;;;;;25.47;14.93;;;-5.10;99.90;;;;;;5023740;28;20168;-82
2022/12/14 00:18:43;;;;;;;24.90;15.37;;;-5.10;99.90;;;;;;5028966;28;20501;-82
2022/12/14 00:21:12;;;;;;;25.50;15.13;;;-5.10;99.90;;;;;;5026457;28;20036;-82
2022/12/14 00:23:39;;;;;;;31.50;17.20;;;-5.10;99.90;;;;;;5023229;28;20037;-82
2022/12/14 00:26:20;;;;;;;29.33;15.53;;;-5.10;99.90;;;;;;5008557;28;20237;-82
2022/12/14 00:28:47;;;;;;;30.17;17.10;;;-5.00;99.90;;;;;;5009144;28;20048;-82
2022/12/14 00:31:13;;;;;;;32.87;17.83;;;-5.00;99.90;;;;;;5022132;28;20095;-82
2022/12/14 00:33:39;;;;;;;29.83;16.33;;;-5.00;99.90;;;;;;5021326;28;20057;-82
2022/12/14 00:36:07;;;;;;;32.33;18.10;;;-5.00;99.90;;;;;;5028776;28;20117;-82
2022/12/14 00:38:32;;;;;;;27.87;15.90;;;-5.00;99.90;;;;;;5009446;28;20430;-82
2022/12/14 00:40:58;;;;;;;31.67;16.23;;;-5.00;99.90;;;;;;5027521;28;20120;-82
2022/12/14 00:43:24;;;;;;;27.17;15.80;;;-5.00;99.90;;;;;;5022536;28;20083;-82
2022/12/14 00:45:50;;;;;;;29.33;16.30;;;-5.00;99.90;;;;;;5024374;28;20041;-82
2022/12/14 00:48:18;;;;;;;31.93;16.10;;;-4.90;99.90;;;;;;5023288;28;20045;-82
2022/12/14 00:50:45;;;;;;;28.57;15.90;;;-4.90;99.90;;;;;;5023163;28;20513;-82
2022/12/14 00:53:11;;;;;;;30.03;16.27;;;-4.90;99.90;;;;;;5021132;28;20043;-82
2022/12/14 00:55:42;;;;;;;25.70;15.60;;;-4.90;99.90;;;;;;5023360;28;20119;-82
2022/12/14 00:58:10;;;;;;;25.50;15.13;;;-4.90;99.90;;;;;;5027064;28;20034;-82
2022/12/14 01:00:36;;;;;;;27.63;15.60;;;-4.90;99.90;;;;;;5026444;28;20033;-82
2022/12/14 01:03:02;;;;;;;27.73;16.67;;;-4.90;99.90;;;;;;5024797;28;20025;-82
2022/12/14 01:05:28;;;;;;;30.30;16.30;;;-4.80;99.90;;;;;;5024778;28;20042;-82
2022/12/14 01:07:54;;;;;;;28.77;16.77;;;-4.90;99.90;;;;;;5019998;28;20057;-82
2022/12/14 01:10:19;;;;;;;27.10;15.83;;;-4.90;99.90;;;;;;5020281;28;20491;-82
2022/12/14 01:12:45;;;;;;;28.00;16.50;;;-4.80;99.90;;;;;;5019869;28;20040;-82
2022/12/14 01:15:11;;;;;;;30.27;17.17;;;-4.80;99.90;;;;;;5021110;28;20022;-82
2022/12/14 01:17:36;;;;;;;26.53;16.00;;;-4.80;99.90;;;;;;5019898;28;20033;-82
2022/12/14 01:20:03;;;;;;;29.60;16.57;;;-4.70;99.90;;;;;;5023034;28;20447;-82
2022/12/14 01:22:29;;;;;;;29.67;16.27;;;-4.70;99.90;;;;;;5020993;28;20037;-82
2022/12/14 01:24:54;;;;;;;29.57;17.03;;;-4.70;99.90;;;;;;5019250;28;20366;-82
2022/12/14 01:27:20;;;;;;;29.80;16.17;;;-4.70;99.90;;;;;;5019249;28;20666;-82
2022/12/14 01:29:45;;;;;;;26.83;15.67;;;-4.70;99.90;;;;;;5005341;28;20039;-82
2022/12/14 01:32:11;;;;;;;29.13;16.37;;;-4.70;99.90;;;;;;5019213;28;20124;-82
2022/12/14 01:34:37;;;;;;;28.47;16.80;;;-4.70;99.90;;;;;;5020167;28;20479;-82
2022/12/14 01:37:02;;;;;;;27.70;15.83;;;-4.70;99.90;;;;;;5019846;28;20039;-81
2022/12/14 01:39:28;;;;;;;27.90;15.90;;;-4.70;99.90;;;;;;5021423;28;20037;-81
2022/12/14 01:41:53;;;;;;;29.60;17.00;;;-4.70;99.90;;;;;;5020670;28;20156;-81
2022/12/14 01:44:19;;;;;;;27.70;15.90;;;-4.70;99.90;;;;;;5006969;28;20061;-81
2022/12/14 01:46:55;;;;;;;28.27;16.43;;;-4.70;99.90;;;;;;5019559;28;20033;-82
2022/12/14 01:49:32;;;;;;;26.50;15.90;;;-4.70;99.90;;;;;;5019724;28;20815;-82
2022/12/14 01:52:08;;;;;;;29.50;16.57;;;-4.60;99.90;;;;;;5019867;28;20126;-82
2022/12/14 01:54:42;;;;;;;27.90;15.47;;;-4.60;99.90;;;;;;5019309;28;20041;-82
2022/12/14 01:57:10;;;;;;;28.15;15.52;;;-4.60;99.90;;;;;;5020417;28;20038;-82
2022/12/14 01:59:40;;;;;;;26.63;15.47;;;-4.60;99.90;;;;;;5023006;28;20120;-82
2022/12/14 02:02:07;;;;;;;30.77;16.53;;;-4.60;99.90;;;;;;5021137;28;20033;-81
2022/12/14 02:04:36;;;;;;;25.33;16.30;;;-4.60;99.90;;;;;;5009001;28;20034;-81
2022/12/14 02:07:03;;;;;;;28.73;15.40;;;-4.60;99.90;;;;;;5022655;28;20092;-82
2022/12/14 02:09:34;;;;;;;26.93;16.80;;;-4.60;99.90;;;;;;5023439;28;20033;-82
2022/12/14 02:12:09;;;;;;;26.53;16.63;;;-4.60;99.90;;;;;;5022636;28;20044;-82
2022/12/14 02:14:35;;;;;;;30.15;16.55;;;-4.50;99.90;;;;;;5022099;28;20117;-82
2022/12/14 02:17:01;;;;;;;29.53;17.43;;;-4.50;99.90;;;;;;5023346;28;20030;-82
2022/12/14 02:19:27;;;;;;;25.63;16.00;;;-4.50;99.90;;;;;;5021882;28;20034;-82
2022/12/14 02:22:08;;;;;;;27.73;17.00;;;-4.50;99.90;;;;;;5023009;28;20128;-82
2022/12/14 02:25:02;;;;;;;27.30;16.43;;;-4.50;99.90;;;;;;5023191;28;20032;-82
2022/12/14 02:27:30;;;;;;;31.83;16.93;;;-4.50;99.90;;;;;;5022767;28;20100;-81
2022/12/14 02:30:06;;;;;;;25.63;15.10;;;-4.50;99.90;;;;;;5021917;28;20021;-82
2022/12/14 02:32:37;;;;;;;28.30;16.13;;;-4.50;99.90;;;;;;5022119;28;20029;-82
2022/12/14 02:35:42;;;;;;;29.50;16.80;;;-4.40;99.90;;;;;;5022605;28;20021;-82
2022/12/14 02:38:40;;;;;;;26.37;15.43;;;-4.40;99.90;;;;;;4998923;28;20065;-82
2022/12/14 02:41:27;;;;;;;24.53;14.83;;;-4.50;99.90;;;;;;5022986;28;20160;-82
2022/12/14 02:44:25;;;;;;;26.97;15.63;;;-4.50;99.90;;;;;;5021532;28;20140;-81
2022/12/14 02:47:01;;;;;;;28.93;17.23;;;-4.50;99.90;;;;;;5022032;28;20037;-82
2022/12/14 02:49:58;;;;;;;25.83;15.37;;;-4.50;99.90;;;;;;5023189;28;20021;-82
2022/12/14 02:53:05;;;;;;;30.53;17.57;;;-4.50;99.90;;;;;;5022635;28;20041;-81
2022/12/14 02:55:40;;;;;;;29.47;16.50;;;-4.40;99.90;;;;;;4961854;28;20041;-82
2022/12/14 02:58:10;;;;;;;31.47;16.57;;;-4.40;99.90;;;;;;5022928;28;20526;-82
2022/12/14 03:00:37;;;;;;;27.23;16.47;;;-4.40;99.90;;;;;;5027711;28;20017;-82
2022/12/14 03:03:04;;;;;;;26.47;16.00;;;-4.40;99.90;;;;;;5032779;28;20045;-82
2022/12/14 03:05:30;;;;;;;30.53;16.03;;;-4.40;99.90;;;;;;5031281;28;20096;-81
2022/12/14 03:08:00;;;;;;;32.37;16.97;;;-4.40;99.90;;;;;;5031165;28;21496;-82
2022/12/14 03:10:51;;;;;;;26.00;15.60;;;-4.40;99.90;;;;;;5033266;28;20192;-81
2022/12/14 03:13:25;;;;;;;27.67;15.77;;;-4.40;99.90;;;;;;5020941;28;20449;-80
2022/12/14 03:16:08;;;;;;;32.50;16.98;;;-4.30;99.90;;;;;;5032504;28;20029;-80
2022/12/14 03:18:57;;;;;;;28.20;15.70;;;-4.30;99.90;;;;;;5033141;28;20164;-81
2022/12/14 03:21:36;;;;;;;28.50;16.27;;;-4.30;99.90;;;;;;5018721;28;20069;-81
2022/12/14 03:24:09;;;;;;;27.07;17.43;;;-4.30;99.90;;;;;;5032891;28;20371;-81
2022/12/14 03:26:55;;;;;;;28.60;16.70;;;-4.30;99.90;;;;;;5026666;28;20109;-80
2022/12/14 03:29:48;;;;;;;28.00;16.73;;;-4.30;99.90;;;;;;5026110;28;20097;-80
2022/12/14 03:32:21;;;;;;;27.53;16.30;;;-4.30;99.90;;;;;;5026043;28;20197;-80
2022/12/14 03:35:10;;;;;;;29.27;17.00;;;-4.30;99.90;;;;;;5026341;28;20020;-81
2022/12/14 03:37:57;;;;;;;29.10;17.67;;;-4.30;99.90;;;;;;5026599;28;20111;-80
2022/12/14 03:40:33;;;;;;;30.70;17.90;;;-4.30;99.90;;;;;;5024899;28;20033;-80
2022/12/14 03:43:11;;;;;;;31.03;17.73;;;-4.30;99.90;;;;;;5025549;28;20174;-80
2022/12/14 03:45:54;;;;;;;31.23;18.27;;;-4.40;99.90;;;;;;5023372;28;20105;-81
2022/12/14 03:48:38;;;;;;;29.00;17.13;;;-4.30;99.90;;;;;;5024966;28;20648;-80
2022/12/14 03:51:29;;;;;;;29.43;18.50;;;-4.30;99.90;;;;;;5025007;28;20029;-80
2022/12/14 03:54:08;;;;;;;26.10;16.03;;;-4.30;99.90;;;;;;5024184;28;20474;-81
2022/12/14 03:56:53;;;;;;;32.97;17.97;;;-4.30;99.90;;;;;;5023051;28;20382;-80
2022/12/14 03:59:44;;;;;;;33.35;18.17;;;-4.30;99.90;;;;;;5010606;28;20048;-80
2022/12/14 04:02:25;;;;;;;26.73;15.97;;;-4.30;99.90;;;;;;5022188;28;20088;-80
2022/12/14 04:05:10;;;;;;;30.00;17.43;;;-4.30;99.90;;;;;;5022128;28;20021;-80
2022/12/14 04:07:50;;;;;;;29.52;16.65;;;-4.30;99.90;;;;;;5023135;28;20061;-80
2022/12/14 04:18:58;;;;;;;30.40;16.47;;;-4.20;99.90;;;;;;5022014;28;20393;-80
2022/12/14 04:21:33;;;;;;;28.27;16.23;;;-4.20;99.90;;;;;;5009403;28;20555;-81
2022/12/14 04:27:36;;;;;;;30.67;16.87;;;-4.20;99.90;;;;;;5022091;28;20106;-80
2022/12/14 04:30:04;;;;;;;25.87;15.60;;;-4.20;99.90;;;;;;5021390;28;20120;-81
2022/12/14 04:32:50;;;;;;;30.27;17.63;;;-4.10;99.90;;;;;;5021258;28;20017;-80
2022/12/14 04:35:21;;;;;;;27.10;16.63;;;-4.10;99.90;;;;;;5020654;28;20165;-80
2022/12/14 04:38:01;;;;;;;31.77;17.60;;;-4.10;99.90;;;;;;5021906;28;20075;-80
2022/12/14 04:40:48;;;;;;;28.93;16.50;;;-4.10;99.90;;;;;;5022635;28;20037;-81
2022/12/14 04:43:18;;;;;;;41.83;24.73;;;-4.10;99.90;;;;;;5008496;28;20037;-81
2022/12/14 04:45:58;;;;;;;36.60;22.53;;;-4.10;99.90;;;;;;5021177;28;20036;-81
2022/12/14 04:48:51;;;;;;;50.10;39.57;;;-4.10;99.90;;;;;;5023297;28;20501;-78
2022/12/14 04:51:20;;;;;;;30.50;17.93;;;-4.10;99.90;;;;;;5023173;28;21432;-77
2022/12/14 04:53:51;;;;;;;27.60;17.27;;;-4.10;99.90;;;;;;5021833;28;20080;-77
2022/12/14 04:56:40;;;;;;;32.67;19.73;;;-4.00;99.90;;;;;;5022827;28;20060;-77
2022/12/14 04:59:07;;;;;;;30.00;18.50;;;-4.00;99.90;;;;;;5022521;28;20033;-78
2022/12/14 05:01:50;;;;;;;37.57;19.77;;;-4.00;99.90;;;;;;5021716;28;20738;-78
2022/12/14 05:04:23;;;;;;;41.30;22.97;;;-4.00;99.90;;;;;;5023282;28;20030;-77
2022/12/14 05:07:35;;;;;;;33.60;20.33;;;-4.00;99.90;;;;;;5022605;28;20068;-78
2022/12/14 05:10:36;;;;;;;73.00;35.80;;;-4.00;99.90;;;;;;5018188;28;20298;-78
2022/12/14 05:13:05;;;;;;;75.77;35.30;;;-4.00;99.90;;;;;;5003963;28;20048;-78
2022/12/14 05:15:38;;;;;;;39.40;21.80;;;-4.00;99.90;;;;;;5022321;28;20049;-78
2022/12/14 05:18:05;;;;;;;30.93;19.60;;;-4.00;99.90;;;;;;5022808;28;20060;-78
2022/12/14 05:20:31;;;;;;;33.73;18.23;;;-4.00;99.90;;;;;;5022538;28;20582;-78
2022/12/14 05:22:57;;;;;;;33.93;18.97;;;-3.90;99.90;;;;;;5023948;28;20053;-78
2022/12/14 05:25:22;;;;;;;35.97;21.30;;;-3.90;99.90;;;;;;5022038;28;20128;-80
2022/12/14 05:27:48;;;;;;;29.53;19.03;;;-3.90;99.90;;;;;;5026616;28;20088;-77
2022/12/14 05:30:13;;;;;;;35.10;22.77;;;-3.90;99.90;;;;;;5024995;28;20075;-77
2022/12/14 05:32:39;;;;;;;35.90;22.63;;;-3.90;99.90;;;;;;5029530;28;20036;-77
2022/12/14 05:35:06;;;;;;;45.07;21.37;;;-3.90;99.90;;;;;;5031466;28;20152;-77
2022/12/14 05:37:31;;;;;;;33.53;20.03;;;-3.90;99.90;;;;;;5031944;28;20033;-77
2022/12/14 05:39:57;;;;;;;34.20;19.47;;;-3.90;99.90;;;;;;5032342;28;20039;-77
2022/12/14 05:42:23;;;;;;;32.63;19.60;;;-3.90;99.90;;;;;;5036515;28;20466;-78
2022/12/14 05:44:48;;;;;;;33.77;20.10;;;-3.90;99.90;;;;;;5024108;28;20431;-77
2022/12/14 05:47:14;;;;;;;34.93;19.40;;;-3.90;99.90;;;;;;5033955;28;20069;-77
2022/12/14 05:49:40;;;;;;;39.67;20.33;;;-3.90;99.90;;;;;;5032807;28;20500;-77
2022/12/14 05:52:06;;;;;;;38.00;20.87;;;-3.90;99.90;;;;;;5032482;28;20156;-77
2022/12/14 05:54:31;;;;;;;36.37;21.30;;;-3.90;99.90;;;;;;5028795;28;20052;-77
2022/12/14 05:56:57;;;;;;;53.53;27.43;;;-3.90;99.90;;;;;;5030426;28;20036;-77
2022/12/14 05:59:23;;;;;;;41.30;22.90;;;-3.90;99.90;;;;;;5029296;28;20068;-77
2022/12/14 06:01:49;;;;;;;38.43;20.17;;;-3.90;99.90;;;;;;5028604;28;20032;-77
2022/12/14 06:04:15;;;;;;;34.20;20.63;;;-3.90;99.90;;;;;;5028861;28;20087;-77
2022/12/14 06:06:41;;;;;;;35.90;21.13;;;-3.90;99.90;;;;;;5029124;28;20136;-77
2022/12/14 06:09:09;;;;;;;37.17;20.83;;;-3.90;99.90;;;;;;5028468;28;20032;-77
2022/12/14 06:11:39;;;;;;;33.83;19.97;;;-3.90;99.90;;;;;;5027686;28;20683;-77
2022/12/14 06:14:06;;;;;;;32.80;19.73;;;-3.90;99.90;;;;;;5026837;28;20037;-77
2022/12/14 06:16:32;;;;;;;41.07;20.73;;;-3.90;99.90;;;;;;5013726;28;20528;-77
2022/12/14 06:18:59;;;;;;;37.00;19.83;;;-3.90;99.90;;;;;;5027199;28;20021;-77
2022/12/14 06:21:31;;;;;;;32.63;19.53;;;-3.90;99.90;;;;;;5032162;28;20018;-79
2022/12/14 06:23:58;;;;;;;32.47;17.57;;;-3.90;99.90;;;;;;5018932;28;20189;-79
2022/12/14 06:26:24;;;;;;;31.80;19.37;;;-3.80;99.90;;;;;;5020909;28;20021;-78
2022/12/14 06:28:50;;;;;;;33.03;19.20;;;-3.80;99.90;;;;;;5030397;28;20030;-78
2022/12/14 06:31:18;;;;;;;36.63;21.60;;;-3.80;99.90;;;;;;5032641;28;20028;-79
2022/12/14 06:33:44;;;;;;;38.50;22.10;;;-3.80;99.90;;;;;;5030725;28;20051;-79
2022/12/14 06:36:22;;;;;;;40.57;24.57;;;-3.80;99.90;;;;;;5033007;28;20111;-78
2022/12/14 06:38:48;;;;;;;29.83;18.23;;;-3.80;99.90;;;;;;5029018;28;20032;-79
2022/12/14 06:41:14;;;;;;;33.03;19.90;;;-3.70;99.90;;;;;;5052748;28;20021;-80
2022/12/14 06:43:40;;;;;;;32.57;18.97;;;-3.70;99.90;;;;;;5032153;28;20029;-80
2022/12/14 06:46:10;;;;;;;30.10;17.77;;;-3.70;99.90;;;;;;5034486;28;20434;-80
2022/12/14 06:48:35;;;;;;;32.97;19.67;;;-3.70;99.90;;;;;;5029643;28;20044;-80
2022/12/14 06:51:02;;;;;;;31.03;19.30;;;-3.70;99.90;;;;;;5013752;28;20022;-80
2022/12/14 06:53:29;;;;;;;37.30;19.67;;;-3.70;99.90;;;;;;5024815;28;20179;-81
2022/12/14 06:56:04;;;;;;;32.87;19.83;;;-3.60;99.90;;;;;;5023838;28;20651;-80
2022/12/14 06:58:30;;;;;;;37.40;20.55;;;-3.60;99.90;;;;;;5024614;28;20026;-80
2022/12/14 07:00:59;;;;;;;37.27;19.87;;;-3.70;99.90;;;;;;5042983;28;20033;-80
2022/12/14 07:03:25;;;;;;;39.93;22.67;;;-3.70;99.90;;;;;;5024114;28;20469;-80
2022/12/14 07:05:55;;;;;;;37.47;21.93;;;-3.60;99.90;;;;;;5010257;28;20053;-80
2022/12/14 07:08:21;;;;;;;46.60;25.60;;;-3.60;99.90;;;;;;5024395;28;20116;-80
2022/12/14 07:10:46;;;;;;;52.33;30.97;;;-3.60;99.90;;;;;;5023663;28;20092;-80
2022/12/14 07:13:12;;;;;;;99.87;54.03;;;-3.60;99.90;;;;;;5029739;28;20091;-80
2022/12/14 07:15:38;;;;;;;46.30;25.83;;;-3.60;99.90;;;;;;5032314;28;21357;-80
2022/12/14 07:18:04;;;;;;;39.10;22.10;;;-3.60;99.90;;;;;;5009673;28;20367;-80
2022/12/14 07:20:30;;;;;;;39.20;23.33;;;-3.60;99.90;;;;;;5021565;28;20040;-80
2022/12/14 07:22:55;;;;;;;39.27;23.73;;;-3.50;99.90;;;;;;5026067;28;20033;-80
2022/12/14 07:25:21;;;;;;;41.83;24.07;;;-3.50;99.90;;;;;;5022781;28;20789;-80
2022/12/14 07:27:47;;;;;;;38.83;22.57;;;-3.50;99.90;;;;;;5021850;28;20061;-81
2022/12/14 07:30:13;;;;;;;43.70;23.83;;;-3.50;99.90;;;;;;5021055;28;20088;-80
2022/12/14 07:32:39;;;;;;;43.53;24.67;;;-3.50;99.90;;;;;;5019876;28;20029;-80
2022/12/14 07:35:05;;;;;;;41.37;25.97;;;-3.40;99.90;;;;;;5022605;28;20033;-80
2022/12/14 07:37:30;;;;;;;43.60;26.07;;;-3.40;99.90;;;;;;5021804;28;20076;-80
2022/12/14 07:39:56;;;;;;;43.97;24.03;;;-3.40;99.90;;;;;;5024249;28;20045;-80
2022/12/14 07:42:21;;;;;;;41.60;24.27;;;-3.40;99.90;;;;;;5021062;28;20034;-80
2022/12/14 07:44:47;;;;;;;41.00;24.57;;;-3.40;99.90;;;;;;5022873;28;20053;-80
2022/12/14 07:47:12;;;;;;;46.97;23.93;;;-3.40;99.90;;;;;;5023904;28;20091;-80
2022/12/14 07:49:38;;;;;;;46.77;26.40;;;-3.40;99.90;;;;;;5023349;28;20091;-80
2022/12/14 07:52:04;;;;;;;41.03;25.17;;;-3.40;99.90;;;;;;5021375;28;20029;-80
2022/12/14 07:54:29;;;;;;;45.07;27.37;;;-3.30;99.90;;;;;;5021398;28;20154;-80
2022/12/14 07:56:55;;;;;;;46.87;26.73;;;-3.30;99.90;;;;;;5022319;28;20108;-80
2022/12/14 07:59:20;;;;;;;47.53;25.30;;;-3.40;99.90;;;;;;5021191;28;20388;-80
2022/12/14 08:01:46;;;;;;;42.33;25.37;;;-3.30;99.90;;;;;;5019992;28;20033;-80
2022/12/14 08:04:15;;;;;;;48.37;26.30;;;-3.30;99.90;;;;;;5019557;28;21258;-80
2022/12/14 08:06:41;;;;;;;45.30;26.07;;;-3.30;99.90;;;;;;5020111;28;20787;-80
2022/12/14 08:09:09;;;;;;;49.30;26.87;;;-3.30;99.90;;;;;;5021772;28;21444;-80
2022/12/14 08:11:35;;;;;;;41.97;25.63;;;-3.30;99.90;;;;;;5020016;28;20794;-81
2022/12/14 08:14:04;;;;;;;45.53;25.50;;;-3.30;99.90;;;;;;5022605;28;20156;-80
2022/12/14 08:16:30;;;;;;;42.10;24.93;;;-3.20;99.90;;;;;;5005942;28;20192;-80
2022/12/14 08:18:57;;;;;;;44.50;26.80;;;-3.20;99.90;;;;;;5027019;28;20080;-81
2022/12/14 08:21:25;;;;;;;47.90;27.20;;;-3.20;99.90;;;;;;5022651;28;20035;-80
2022/12/14 08:23:52;;;;;;;41.17;25.20;;;-3.10;99.90;;;;;;5017659;28;20116;-80
2022/12/14 08:26:18;;;;;;;44.70;24.53;;;-3.10;99.90;;;;;;5017216;28;20025;-80
2022/12/14 08:28:44;;;;;;;41.90;26.30;;;-3.00;99.90;;;;;;5007500;28;20122;-80
2022/12/14 08:31:22;;;;;;;41.83;24.97;;;-3.00;99.90;;;;;;5022829;28;20041;-80
2022/12/14 08:33:48;;;;;;;43.30;25.97;;;-2.90;99.90;;;;;;5019289;28;20425;-79
2022/12/14 08:36:28;;;;;;;42.20;25.50;;;-2.90;99.90;;;;;;5018854;28;20017;-80
2022/12/14 08:38:56;;;;;;;41.23;26.90;;;-2.90;99.90;;;;;;5002689;28;20029;-80
2022/12/14 08:41:23;;;;;;;47.83;29.63;;;-2.90;99.90;;;;;;5017813;28;20033;-80
2022/12/14 08:43:50;;;;;;;47.33;27.50;;;-2.80;99.90;;;;;;5040497;28;20040;-80
2022/12/14 08:46:16;;;;;;;48.93;28.37;;;-2.80;99.90;;;;;;5020900;28;20041;-80
2022/12/14 08:48:42;;;;;;;48.73;27.97;;;-2.70;99.90;;;;;;5022402;28;20061;-79
2022/12/14 08:51:09;;;;;;;49.63;28.77;;;-2.70;99.90;;;;;;5018565;28;20179;-79
2022/12/14 08:53:36;;;;;;;50.67;30.07;;;-2.70;99.90;;;;;;5016956;28;20117;-79
2022/12/14 08:56:07;;;;;;;46.00;27.33;;;-2.70;99.90;;;;;;5036212;28;20075;-79
2022/12/14 08:58:33;;;;;;;45.27;26.13;;;-2.60;99.90;;;;;;5016980;28;20746;-79
2022/12/14 09:01:07;;;;;;;45.43;26.17;;;-2.60;99.90;;;;;;5015151;28;20041;-80
2022/12/14 09:03:33;;;;;;;58.83;29.20;;;-2.50;99.90;;;;;;5016684;28;20033;-80
2022/12/14 09:06:07;;;;;;;47.03;27.67;;;-2.50;99.90;;;;;;5016143;28;20064;-80
2022/12/14 09:08:34;;;;;;;39.13;23.37;;;-2.50;99.90;;;;;;5004360;28;20171;-80
2022/12/14 09:11:01;;;;;;;60.50;34.87;;;-2.50;99.90;;;;;;5019131;28;20034;-79
2022/12/14 09:13:27;;;;;;;177.87;74.47;;;-2.50;99.90;;;;;;5019960;28;20037;-80
2022/12/14 09:16:02;;;;;;;64.30;35.00;;;-2.50;99.90;;;;;;5021525;28;20102;-80
2022/12/14 09:18:28;;;;;;;60.22;31.98;;;-2.50;99.90;;;;;;5020861;28;20030;-80
2022/12/14 09:20:55;;;;;;;51.00;29.53;;;-2.40;99.90;;;;;;5018137;28;20045;-80
2022/12/14 09:23:22;;;;;;;47.40;29.40;;;-2.40;99.90;;;;;;5019602;28;20026;-80
2022/12/14 09:25:58;;;;;;;46.63;27.33;;;-2.40;99.90;;;;;;5019319;28;20038;-80
2022/12/14 09:28:23;;;;;;;46.47;29.70;;;-2.40;99.90;;;;;;5019164;28;20300;-80
2022/12/14 09:30:54;;;;;;;50.13;28.70;;;-2.30;99.90;;;;;;5016606;28;20037;-80
2022/12/14 09:33:20;;;;;;;48.20;29.80;;;-2.30;99.90;;;;;;5003080;28;20393;-80
2022/12/14 09:35:45;;;;;;;44.33;27.50;;;-2.30;99.90;;;;;;5019820;28;20037;-80
2022/12/14 09:38:11;;;;;;;49.60;27.20;;;-2.30;99.90;;;;;;5019246;28;20033;-80
2022/12/14 09:40:41;;;;;;;48.30;26.43;;;-2.30;99.90;;;;;;5019255;28;20029;-80
2022/12/14 09:43:19;;;;;;;49.73;28.77;;;-2.20;99.90;;;;;;5021492;28;20016;-80
2022/12/14 09:45:57;;;;;;;46.40;27.87;;;-2.20;99.90;;;;;;5006467;28;20061;-80
2022/12/14 09:48:24;;;;;;;50.33;30.00;;;-2.10;99.90;;;;;;5020357;28;20026;-80
2022/12/14 09:50:52;;;;;;;49.90;29.07;;;-2.10;99.90;;;;;;5018191;28;20120;-80
2022/12/14 09:53:19;;;;;;;55.30;29.87;;;-2.10;99.90;;;;;;5019397;28;20042;-80
2022/12/14 09:55:46;;;;;;;47.67;28.37;;;-2.20;99.90;;;;;;5019008;28;20022;-80
2022/12/14 09:58:15;;;;;;;54.13;30.10;;;-2.20;99.90;;;;;;5017693;28;20049;-80
2022/12/14 10:00:46;;;;;;;51.23;28.37;;;-2.10;99.90;;;;;;5016935;28;20071;-82
2022/12/14 10:03:27;;;;;;;53.37;28.00;;;-2.10;99.90;;;;;;5018225;28;20032;-81
2022/12/14 10:06:27;;;;;;;48.90;29.07;;;-2.10;99.90;;;;;;5002985;28;20065;-81
2022/12/14 10:09:30;;;;;;;45.40;27.53;;;-2.10;99.90;;;;;;5014601;28;20203;-81
2022/12/14 10:11:58;;;;;;;54.57;29.77;;;-2.00;99.90;;;;;;5019002;28;20033;-81
2022/12/14 10:14:41;;;;;;;48.73;28.43;;;-2.00;99.90;;;;;;5015974;28;20026;-81
2022/12/14 10:17:31;;;;;;;47.80;26.63;;;-1.90;99.90;;;;;;5017941;28;20022;-81
2022/12/14 10:20:18;;;;;;;46.43;28.50;;;-1.90;99.90;;;;;;5017196;28;20022;-81
2022/12/14 10:22:48;;;;;;;51.27;27.67;;;-1.80;99.90;;;;;;5017605;28;20044;-81
2022/12/14 10:25:45;;;;;;;50.17;26.70;;;-1.80;99.90;;;;;;4999301;28;20029;-82
2022/12/14 10:28:43;;;;;;;45.07;27.27;;;-1.70;99.90;;;;;;5006901;28;20034;-81
2022/12/14 10:31:15;;;;;;;47.30;27.57;;;-1.70;99.90;;;;;;4969073;28;20060;-80
2022/12/14 10:33:44;;;;;;;48.60;27.47;;;-1.70;99.90;;;;;;5034334;28;20144;-80
2022/12/14 10:36:43;;;;;;;48.33;27.73;;;-1.60;99.90;;;;;;5018007;28;20064;-81
2022/12/14 10:39:39;;;;;;;54.73;33.63;;;-1.60;99.90;;;;;;5018462;28;20041;-81
2022/12/14 10:42:25;;;;;;;49.70;28.70;;;-1.60;99.90;;;;;;5016940;28;20036;-81
2022/12/14 10:45:00;;;;;;;44.10;26.65;;;-1.60;99.90;;;;;;5017109;28;20051;-81
2022/12/14 10:47:36;;;;;;;52.35;28.52;;;-1.60;99.90;;;;;;5016140;28;20047;-80
2022/12/14 10:50:29;;;;;;;53.80;28.60;;;-1.60;99.90;;;;;;5016432;28;20116;-80
2022/12/14 10:52:56;;;;;;;52.07;29.57;;;-1.50;99.90;;;;;;5016456;28;20463;-81
2022/12/14 10:55:43;;;;;;;49.00;29.90;;;-1.50;99.90;;;;;;5018634;28;20784;-80
2022/12/14 10:58:10;;;;;;;50.73;29.23;;;-1.50;99.90;;;;;;5017460;28;20038;-81
2022/12/14 11:00:37;;;;;;;49.43;29.27;;;-1.50;99.90;;;;;;5016708;28;20041;-80
2022/12/14 11:03:09;;;;;;;50.37;29.20;;;-1.50;99.90;;;;;;5018376;28;20041;-80
2022/12/14 11:05:40;;;;;;;48.07;29.37;;;-1.40;99.90;;;;;;5020179;28;20439;-79
2022/12/14 11:08:07;;;;;;;51.60;29.97;;;-1.40;99.90;;;;;;5024854;28;20418;-80
2022/12/14 11:10:34;;;;;;;52.83;30.60;;;-1.40;99.90;;;;;;5019653;28;20605;-80
2022/12/14 11:13:12;;;;;;;57.13;30.17;;;-1.40;99.90;;;;;;5025275;28;20029;-80
2022/12/14 11:15:45;;;;;;;53.57;31.67;;;-1.40;99.90;;;;;;5024205;28;21202;-80
2022/12/14 11:18:11;;;;;;;48.80;29.00;;;-1.30;99.90;;;;;;5024218;28;20033;-80
2022/12/14 11:20:48;;;;;;;49.53;28.07;;;-1.30;99.90;;;;;;5026169;28;20877;-80
2022/12/14 11:23:19;;;;;;;54.70;30.37;;;-1.30;99.90;;;;;;5026722;28;20033;-80
2022/12/14 11:25:47;;;;;;;64.37;36.60;;;-1.20;99.90;;;;;;5025521;28;20784;-80
2022/12/14 11:28:21;;;;;;;45.67;28.57;;;-1.20;99.90;;;;;;5027006;28;20037;-80
2022/12/14 11:30:59;;;;;;;47.57;29.43;;;-1.10;99.90;;;;;;5024230;28;20056;-80
2022/12/14 11:33:31;;;;;;;52.13;30.53;;;-1.20;99.90;;;;;;5023794;28;20041;-81
2022/12/14 11:35:57;;;;;;;54.23;33.87;;;-1.20;99.90;;;;;;5021561;28;20148;-81
2022/12/14 11:38:26;;;;;;;55.63;32.83;;;-1.20;99.90;;;;;;5023705;28;20026;-81
2022/12/14 11:40:52;;;;;;;49.90;30.70;;;-1.20;99.90;;;;;;5007103;28;20033;-80
2022/12/14 11:43:39;;;;;;;54.50;31.87;;;-1.10;99.90;;;;;;5021619;28;20021;-81
2022/12/14 11:46:05;;;;;;;48.27;30.90;;;-1.10;99.90;;;;;;5021309;28;20029;-81
2022/12/14 11:48:33;;;;;;;48.30;29.77;;;-1.10;99.90;;;;;;5022826;28;20041;-81
2022/12/14 11:51:12;;;;;;;52.90;30.93;;;-1.10;99.90;;;;;;5005718;28;20048;-81
2022/12/14 11:53:38;;;;;;;64.57;36.53;;;-1.10;99.90;;;;;;5005425;28;20021;-81
2022/12/14 11:56:09;;;;;;;82.50;49.67;;;-1.10;99.90;;;;;;5015734;28;20080;-81
2022/12/14 11:58:38;;;;;;;52.53;30.13;;;-1.10;99.90;;;;;;5015627;28;20080;-81
2022/12/14 12:01:13;;;;;;;50.60;30.53;;;-1.10;99.90;;;;;;5015784;28;20084;-81
2022/12/14 12:03:45;;;;;;;51.90;30.98;;;-1.10;99.90;;;;;;5015353;28;20031;-81
2022/12/14 12:06:14;;;;;;;49.93;29.97;;;-1.10;99.90;;;;;;5014884;28;20119;-81
2022/12/14 12:08:42;;;;;;;46.23;29.53;;;-1.10;99.90;;;;;;5014513;28;20068;-81
2022/12/14 12:11:25;;;;;;;48.73;30.00;;;-1.10;99.90;;;;;;5014141;28;20030;-81
2022/12/14 12:13:55;;;;;;;44.87;28.10;;;-1.00;99.90;;;;;;5015677;28;20049;-81
2022/12/14 12:16:24;;;;;;;44.57;28.70;;;-1.00;99.90;;;;;;5016728;28;20045;-81
2022/12/14 12:19:30;;;;;;;49.77;30.10;;;-1.00;99.90;;;;;;5000809;28;20149;-81
2022/12/14 12:21:58;;;;;;;;;;;-1.00;99.90;;;;;;4993437;28;20474;-82
2022/12/14 12:24:59;;;;;;;47.23;28.10;;;-0.90;99.90;;;;;;5014068;28;19908;-82
2022/12/14 12:27:26;;;;;;;53.17;29.83;;;-0.90;99.90;;;;;;4993431;28;20041;-82
2022/12/14 12:30:03;;;;;;;54.63;30.00;;;-0.90;99.90;;;;;;5018375;28;20027;-82
2022/12/14 12:32:46;;;;;;;49.50;30.33;;;-0.90;99.90;;;;;;5016486;28;20034;-83
2022/12/14 12:35:20;;;;;;;49.77;30.20;;;-0.90;99.90;;;;;;5014470;28;20029;-82
2022/12/14 12:37:54;;;;;;;59.00;35.00;;;-0.90;99.90;;;;;;5015023;28;20025;-82
2022/12/14 12:40:33;;;;;;;46.63;30.37;;;-0.90;99.90;;;;;;5016267;28;20686;-81
2022/12/14 12:43:19;;;;;;;52.10;29.60;;;-0.90;99.90;;;;;;5000415;28;20501;-81
2022/12/14 12:45:55;;;;;;;47.63;29.93;;;-0.90;99.90;;;;;;4996936;28;20084;-81
2022/12/14 12:48:29;;;;;;;43.87;28.80;;;-0.90;99.90;;;;;;5014425;28;20126;-82
2022/12/14 12:51:03;;;;;;;34.83;21.73;;;-0.90;99.90;;;;;;5014381;28;20120;-82
2022/12/14 12:53:39;;;;;;;48.17;30.63;;;-0.90;99.90;;;;;;5016932;28;20109;-82
2022/12/14 12:56:38;;;;;;;49.67;30.27;;;-0.90;99.90;;;;;;5017049;28;20018;-82
2022/12/14 12:59:05;;;;;;;42.27;27.80;;;-0.90;99.90;;;;;;5016748;28;20025;-82
2022/12/14 13:01:41;;;;;;;43.27;27.27;;;-0.90;99.90;;;;;;4999380;28;20157;-82
2022/12/14 13:04:14;;;;;;;45.10;28.83;;;-0.90;99.90;;;;;;5016579;28;20025;-82
2022/12/14 13:06:55;;;;;;;43.30;27.07;;;-0.90;99.90;;;;;;5015642;28;20097;-82